CFE7TW EGLC-LESO
Flight info
| Callsign | CFE7TW |
|---|---|
| Flight time | N/A |
| Altitude | 32000 |
| Route | SOQQA M87 EKNIV M91 LYD UM189 WAFFU DCT SITET UN859 SOPIL DCT BALAN DCT LMG DCT UVELI DCT OSMOB DCT VAVIX DCT BTZ R10 URUNA P181 SSN |
| Aircraft | E190/M-SDE3GILORVW/S |
Departure
| Time | N/A |
|---|---|
| Airport | London City Airport (EGLC) |
Arrival
| Time | 2026-04-12 11:35 |
|---|---|
| Airport | San Sebastián Airport (LESO) |
| Time | Latitude | Longitude | Altitude | Speed | Heading |
|---|---|---|---|---|---|
| 2026-04-12 10:50 | 45.89647 | 1.02470 | 32074 ft | 428 kts | 183° |
| 2026-04-12 10:51 | 45.83701 | 1.02099 | 32098 ft | 426 kts | 193° |
| 2026-04-12 10:51 | 45.80911 | 1.00747 | 32125 ft | 424 kts | 207° |
| 2026-04-12 10:51 | 45.78455 | 0.98416 | 32144 ft | 425 kts | 218° |
| 2026-04-12 10:52 | 45.73857 | 0.93081 | 32039 ft | 425 kts | 219° |
| 2026-04-12 10:52 | 45.69300 | 0.87689 | 32054 ft | 426 kts | 219° |
| 2026-04-12 10:53 | 45.64741 | 0.82277 | 32056 ft | 427 kts | 219° |
| 2026-04-12 10:53 | 45.60169 | 0.76863 | 32075 ft | 426 kts | 219° |
| 2026-04-12 10:54 | 45.55609 | 0.71477 | 32084 ft | 426 kts | 219° |
| 2026-04-12 10:54 | 45.51028 | 0.66077 | 32081 ft | 428 kts | 219° |
| 2026-04-12 10:55 | 45.46466 | 0.60710 | 32090 ft | 428 kts | 219° |
| 2026-04-12 10:55 | 45.41843 | 0.55282 | 32094 ft | 428 kts | 219° |
| 2026-04-12 10:56 | 45.37270 | 0.49925 | 32087 ft | 430 kts | 219° |
| 2026-04-12 10:56 | 45.32641 | 0.44513 | 32089 ft | 431 kts | 219° |
| 2026-04-12 10:57 | 45.28001 | 0.39102 | 32098 ft | 432 kts | 219° |
| 2026-04-12 10:57 | 45.23360 | 0.33699 | 32089 ft | 432 kts | 219° |
| 2026-04-12 10:58 | 45.18706 | 0.28295 | 32085 ft | 433 kts | 219° |
| 2026-04-12 10:58 | 45.14051 | 0.22900 | 32091 ft | 432 kts | 219° |
| 2026-04-12 10:59 | 45.09385 | 0.17505 | 32090 ft | 434 kts | 219° |
| 2026-04-12 10:59 | 45.04716 | 0.12117 | 32102 ft | 433 kts | 219° |
| 2026-04-12 11:00 | 45.00062 | 0.06722 | 32101 ft | 432 kts | 219° |
| 2026-04-12 11:00 | 44.95408 | 0.01309 | 32100 ft | 434 kts | 219° |
| 2026-04-12 11:01 | 44.93079 | -0.01397 | 32423 ft | 429 kts | 217° |
| 2026-04-12 11:01 | 44.90797 | -0.04046 | 31351 ft | 421 kts | 216° |
| 2026-04-12 11:01 | 44.88572 | -0.06622 | 30969 ft | 402 kts | 216° |
| 2026-04-12 11:01 | 44.86477 | -0.09050 | 30954 ft | 383 kts | 216° |
| 2026-04-12 11:02 | 44.82308 | -0.13850 | 31518 ft | 384 kts | 216° |
| 2026-04-12 11:02 | 44.80276 | -0.16192 | 31958 ft | 382 kts | 216° |
| 2026-04-12 11:02 | 44.78219 | -0.18558 | 32098 ft | 383 kts | 216° |
| 2026-04-12 11:03 | 44.74031 | -0.23370 | 32102 ft | 392 kts | 216° |
| 2026-04-12 11:03 | 44.69803 | -0.28225 | 32121 ft | 393 kts | 216° |
| 2026-04-12 11:04 | 44.65571 | -0.33072 | 32108 ft | 393 kts | 216° |
| 2026-04-12 11:04 | 44.61127 | -0.37480 | 32095 ft | 390 kts | 212° |
| 2026-04-12 11:05 | 44.56654 | -0.41811 | 32106 ft | 391 kts | 212° |
| 2026-04-12 11:05 | 44.52160 | -0.46145 | 32104 ft | 392 kts | 212° |
| 2026-04-12 11:06 | 44.47660 | -0.50480 | 32104 ft | 393 kts | 212° |
| 2026-04-12 11:06 | 44.43156 | -0.54809 | 32106 ft | 393 kts | 212° |
| 2026-04-12 11:07 | 44.38654 | -0.59127 | 32099 ft | 393 kts | 212° |
| 2026-04-12 11:07 | 44.34135 | -0.63453 | 32115 ft | 394 kts | 212° |
| 2026-04-12 11:08 | 44.29601 | -0.67786 | 32113 ft | 395 kts | 212° |
| 2026-04-12 11:08 | 44.25088 | -0.72183 | 32113 ft | 396 kts | 214° |
| 2026-04-12 11:09 | 44.20659 | -0.76749 | 32147 ft | 396 kts | 214° |
| 2026-04-12 11:09 | 44.16236 | -0.81261 | 32112 ft | 394 kts | 213° |
| 2026-04-12 11:10 | 44.11812 | -0.85745 | 32105 ft | 385 kts | 213° |
| 2026-04-12 11:10 | 44.09688 | -0.87901 | 31550 ft | 374 kts | 213° |
| 2026-04-12 11:10 | 44.07638 | -0.89977 | 31308 ft | 357 kts | 213° |
| 2026-04-12 11:11 | 44.05669 | -0.91966 | 30788 ft | 350 kts | 213° |
| 2026-04-12 11:11 | 44.03699 | -0.93955 | 30293 ft | 342 kts | 213° |
| 2026-04-12 11:11 | 44.01820 | -0.95850 | 29845 ft | 336 kts | 212° |
| 2026-04-12 11:11 | 43.99906 | -0.97774 | 29431 ft | 346 kts | 212° |
| 2026-04-12 11:12 | 43.97930 | -0.99757 | 28960 ft | 353 kts | 213° |
| 2026-04-12 11:12 | 43.95930 | -1.01769 | 28469 ft | 358 kts | 213° |
| 2026-04-12 11:12 | 43.93908 | -1.03805 | 28002 ft | 360 kts | 213° |
| 2026-04-12 11:12 | 43.91878 | -1.05847 | 27526 ft | 360 kts | 213° |
| 2026-04-12 11:13 | 43.89857 | -1.07879 | 27052 ft | 358 kts | 213° |
| 2026-04-12 11:13 | 43.87848 | -1.09896 | 26579 ft | 355 kts | 213° |
| 2026-04-12 11:13 | 43.85849 | -1.11900 | 26108 ft | 354 kts | 213° |
| 2026-04-12 11:13 | 43.83858 | -1.13894 | 25644 ft | 352 kts | 213° |
| 2026-04-12 11:14 | 43.81874 | -1.15878 | 25148 ft | 352 kts | 213° |
| 2026-04-12 11:14 | 43.79894 | -1.17858 | 24721 ft | 350 kts | 213° |
| 2026-04-12 11:14 | 43.77920 | -1.19833 | 24233 ft | 350 kts | 213° |
| 2026-04-12 11:14 | 43.75950 | -1.21802 | 23771 ft | 348 kts | 213° |
| 2026-04-12 11:15 | 43.73989 | -1.23759 | 23293 ft | 346 kts | 213° |
| 2026-04-12 11:15 | 43.72045 | -1.25696 | 22851 ft | 344 kts | 213° |
| 2026-04-12 11:15 | 43.70107 | -1.27625 | 22392 ft | 342 kts | 214° |
| 2026-04-12 11:15 | 43.68178 | -1.29545 | 21936 ft | 341 kts | 214° |
| 2026-04-12 11:16 | 43.66259 | -1.31454 | 21497 ft | 339 kts | 214° |
| 2026-04-12 11:16 | 43.64347 | -1.33355 | 21012 ft | 338 kts | 215° |
| 2026-04-12 11:16 | 43.62449 | -1.35240 | 20594 ft | 335 kts | 215° |
| 2026-04-12 11:16 | 43.60561 | -1.37112 | 20138 ft | 334 kts | 216° |
| 2026-04-12 11:17 | 43.58675 | -1.38982 | 19703 ft | 333 kts | 216° |
| 2026-04-12 11:17 | 43.56802 | -1.40839 | 19255 ft | 330 kts | 216° |
| 2026-04-12 11:17 | 43.54942 | -1.42681 | 18826 ft | 328 kts | 217° |
| 2026-04-12 11:17 | 43.53092 | -1.44513 | 18385 ft | 327 kts | 217° |
| 2026-04-12 11:18 | 43.51258 | -1.46328 | 17956 ft | 324 kts | 217° |
| 2026-04-12 11:18 | 43.49429 | -1.48137 | 17518 ft | 324 kts | 217° |
| 2026-04-12 11:18 | 43.47607 | -1.49955 | 17104 ft | 322 kts | 219° |
| 2026-04-12 11:18 | 43.46079 | -1.52191 | 16677 ft | 322 kts | 234° |
| 2026-04-12 11:19 | 43.44807 | -1.54734 | 16221 ft | 324 kts | 235° |
| 2026-04-12 11:19 | 43.43556 | -1.57302 | 15812 ft | 322 kts | 236° |
| 2026-04-12 11:19 | 43.42318 | -1.59868 | 15381 ft | 321 kts | 236° |
| 2026-04-12 11:19 | 43.41091 | -1.62422 | 14965 ft | 319 kts | 236° |
| 2026-04-12 11:20 | 43.39883 | -1.64939 | 14532 ft | 312 kts | 236° |
| 2026-04-12 11:20 | 43.38699 | -1.67396 | 14125 ft | 305 kts | 236° |
| 2026-04-12 11:20 | 43.37536 | -1.69807 | 13700 ft | 300 kts | 236° |
| 2026-04-12 11:20 | 43.36397 | -1.72160 | 13350 ft | 292 kts | 236° |
| 2026-04-12 11:21 | 43.35283 | -1.74458 | 12941 ft | 286 kts | 236° |
| 2026-04-12 11:21 | 43.34191 | -1.76707 | 12626 ft | 281 kts | 236° |
| 2026-04-12 11:21 | 43.33120 | -1.78915 | 12204 ft | 282 kts | 236° |
| 2026-04-12 11:21 | 43.32043 | -1.81160 | 11829 ft | 281 kts | 239° |
| 2026-04-12 11:22 | 43.31407 | -1.83713 | 11536 ft | 281 kts | 262° |
| 2026-04-12 11:22 | 43.31602 | -1.86380 | 11128 ft | 287 kts | 288° |
| 2026-04-12 11:22 | 43.32709 | -1.88649 | 10723 ft | 291 kts | 316° |
| 2026-04-12 11:22 | 43.34411 | -1.90080 | 10357 ft | 291 kts | 332° |
| 2026-04-12 11:23 | 43.36240 | -1.91250 | 9924 ft | 290 kts | 333° |
| 2026-04-12 11:23 | 43.38049 | -1.92425 | 9536 ft | 284 kts | 332° |
| 2026-04-12 11:23 | 43.39788 | -1.93650 | 9169 ft | 278 kts | 330° |
| 2026-04-12 11:23 | 43.41472 | -1.94913 | 8814 ft | 273 kts | 329° |
| 2026-04-12 11:24 | 43.43053 | -1.96331 | 8440 ft | 273 kts | 320° |
| 2026-04-12 11:24 | 43.44541 | -1.98006 | 7928 ft | 276 kts | 328° |
| 2026-04-12 11:24 | 43.46346 | -1.98709 | 7624 ft | 272 kts | 1° |
| 2026-04-12 11:24 | 43.48109 | -1.97923 | 7462 ft | 267 kts | 34° |
| 2026-04-12 11:25 | 43.49242 | -1.95998 | 7151 ft | 257 kts | 68° |
| 2026-04-12 11:25 | 43.49472 | -1.93644 | 6818 ft | 243 kts | 91° |
| 2026-04-12 11:25 | 43.49399 | -1.91387 | 6514 ft | 229 kts | 88° |
| 2026-04-12 11:25 | 43.49607 | -1.89288 | 6236 ft | 214 kts | 71° |
| 2026-04-12 11:26 | 43.50133 | -1.87431 | 5997 ft | 204 kts | 62° |
| 2026-04-12 11:26 | 43.50760 | -1.85702 | 5822 ft | 200 kts | 60° |
| 2026-04-12 11:26 | 43.51392 | -1.84025 | 5561 ft | 195 kts | 60° |
| 2026-04-12 11:26 | 43.51999 | -1.82429 | 5300 ft | 183 kts | 59° |
| 2026-04-12 11:27 | 43.52578 | -1.80900 | 4998 ft | 177 kts | 59° |
| 2026-04-12 11:27 | 43.53141 | -1.79424 | 4732 ft | 171 kts | 59° |
| 2026-04-12 11:27 | 43.53681 | -1.78007 | 4510 ft | 163 kts | 59° |
| 2026-04-12 11:27 | 43.54196 | -1.76654 | 4302 ft | 156 kts | 59° |
| 2026-04-12 11:28 | 43.54666 | -1.75339 | 4100 ft | 152 kts | 69° |
| 2026-04-12 11:28 | 43.54697 | -1.73888 | 3888 ft | 156 kts | 105° |
| 2026-04-12 11:28 | 43.54137 | -1.72596 | 3752 ft | 159 kts | 126° |
| 2026-04-12 11:28 | 43.53416 | -1.71404 | 3561 ft | 164 kts | 128° |
| 2026-04-12 11:29 | 43.52673 | -1.70205 | 3314 ft | 164 kts | 128° |
| 2026-04-12 11:29 | 43.51951 | -1.69006 | 3055 ft | 160 kts | 127° |
| 2026-04-12 11:29 | 43.51265 | -1.67837 | 2843 ft | 156 kts | 126° |
| 2026-04-12 11:29 | 43.50594 | -1.66672 | 2725 ft | 155 kts | 126° |
| 2026-04-12 11:30 | 43.49889 | -1.65534 | 2638 ft | 160 kts | 137° |
| 2026-04-12 11:30 | 43.48874 | -1.64923 | 2399 ft | 162 kts | 179° |
| 2026-04-12 11:30 | 43.47875 | -1.65435 | 2362 ft | 154 kts | 218° |
| 2026-04-12 11:30 | 43.47035 | -1.66390 | 2317 ft | 159 kts | 222° |
| 2026-04-12 11:31 | 43.46197 | -1.67386 | 2239 ft | 159 kts | 221° |
| 2026-04-12 11:31 | 43.45358 | -1.68352 | 2174 ft | 157 kts | 220° |
| 2026-04-12 11:31 | 43.44522 | -1.69283 | 2081 ft | 150 kts | 219° |
| 2026-04-12 11:31 | 43.43721 | -1.70161 | 1954 ft | 148 kts | 219° |
| 2026-04-12 11:32 | 43.43185 | -1.70752 | 1796 ft | 149 kts | 219° |
| 2026-04-12 11:32 | 43.42384 | -1.71637 | 1582 ft | 146 kts | 219° |
| 2026-04-12 11:32 | 43.41598 | -1.72504 | 1352 ft | 143 kts | 219° |
| 2026-04-12 11:32 | 43.40829 | -1.73350 | 1235 ft | 139 kts | 219° |
| 2026-04-12 11:33 | 43.40092 | -1.74163 | 1087 ft | 133 kts | 219° |
| 2026-04-12 11:33 | 43.39149 | -1.75200 | 764 ft | 130 kts | 219° |
| 2026-04-12 11:33 | 43.38672 | -1.75714 | 635 ft | 127 kts | 218° |
| 2026-04-12 11:33 | 43.37991 | -1.76466 | 526 ft | 126 kts | 219° |
| 2026-04-12 11:34 | 43.37298 | -1.77238 | 378 ft | 130 kts | 220° |
| 2026-04-12 11:34 | 43.36602 | -1.78013 | 173 ft | 128 kts | 219° |
| 2026-04-12 11:34 | 43.35912 | -1.78769 | 20 ft | 120 kts | 218° |
| 2026-04-12 11:34 | 43.35403 | -1.79328 | 19 ft | 64 kts | 218° |
| 2026-04-12 11:35 | 43.35178 | -1.79577 | 19 ft | 35 kts | 219° |
| 2026-04-12 11:35 | 43.35089 | -1.79719 | 18 ft | 10 kts | 251° |
| 2026-04-12 11:35 | 43.35064 | -1.79732 | 19 ft | 2 kts | 116° |
| 2026-04-12 11:35 | 43.35077 | -1.79691 | 19 ft | 5 kts | 50° |
| 2026-04-12 11:36 | 43.35112 | -1.79650 | 18 ft | 8 kts | 38° |
| 2026-04-12 11:36 | 43.35161 | -1.79598 | 19 ft | 10 kts | 38° |
| 2026-04-12 11:36 | 43.35216 | -1.79536 | 19 ft | 11 kts | 38° |
| 2026-04-12 11:36 | 43.35281 | -1.79465 | 19 ft | 13 kts | 38° |
| 2026-04-12 11:37 | 43.35369 | -1.79369 | 19 ft | 20 kts | 38° |
| 2026-04-12 11:37 | 43.35486 | -1.79238 | 17 ft | 23 kts | 39° |
| 2026-04-12 11:37 | 43.35601 | -1.79117 | 17 ft | 16 kts | 38° |
| 2026-04-12 11:37 | 43.35686 | -1.79025 | 17 ft | 12 kts | 36° |
| 2026-04-12 11:38 | 43.35732 | -1.79059 | 17 ft | 9 kts | 309° |
| 2026-04-12 11:38 | 43.35750 | -1.79116 | 16 ft | 3 kts | 248° |
| 2026-04-12 11:38 | 43.35728 | -1.79139 | 16 ft | 1 kts | 218° |
| 2026-04-12 11:38 | 43.35728 | -1.79140 | 16 ft | 0 kts | 218° |